Terminal Aerodrome Forecast
Issued by NWS Charleston, WV

Current Version | Previous Version | Graphics & Text | Print | Product List | Glossary On
Versions: 1 2 3 4 5 6 7 8 9 10 11 12 13 14 15 16 17 18 19 20 21 22 23 24 25 26 27 28 29
000
FTUS41 KRLX 210900 AAA
TAFCRW
TAF AMD
KCRW 210948Z 2110/2206 18004KT 6SM BR FEW001 SCT250
     FM211300 21007KT 6SM BR BKN035
     FM211500 23009KT 6SM SHRA BR VCTS BKN050CB
     FM211800 24010G17KT 6SM SHRA BR VCTS BKN015CB
     FM212200 25010KT P6SM BKN025
     FM220100 28007KT P6SM BKN040
     FM220200 29008KT P6SM SCT040=

USA.gov is the U.S. government's official web portal to all federal, state and local government web resources and services.